sensor_id;sensor_type;location;lat;lon;timestamp;pressure;altitude;pressure_sealevel;temperature;humidity
57779;BME280;43608;49.486;9.640;2024-01-27T00:00:22;100352.75;;;1.08;94.35
57779;BME280;43608;49.486;9.640;2024-01-27T00:00:53;100375.06;;;1.18;94.31
57779;BME280;43608;49.486;9.640;2024-01-27T00:01:23;100368.97;;;1.18;94.16
57779;BME280;43608;49.486;9.640;2024-01-27T00:01:53;100353.53;;;1.07;93.88
57779;BME280;43608;49.486;9.640;2024-01-27T00:02:24;100373.31;;;1.17;93.93
57779;BME280;43608;49.486;9.640;2024-01-27T00:02:54;100374.09;;;1.16;94.18
57779;BME280;43608;49.486;9.640;2024-01-27T00:03:24;100380.13;;;1.15;94.32
57779;BME280;43608;49.486;9.640;2024-01-27T00:03:55;100374.72;;;1.12;94.20
57779;BME280;43608;49.486;9.640;2024-01-27T00:04:25;100376.50;;;1.13;94.05
57779;BME280;43608;49.486;9.640;2024-01-27T00:04:55;100381.72;;;1.13;94.23
57779;BME280;43608;49.486;9.640;2024-01-27T00:05:26;100388.69;;;1.12;94.40
57779;BME280;43608;49.486;9.640;2024-01-27T00:05:56;100384.25;;;1.11;94.35
57779;BME280;43608;49.486;9.640;2024-01-27T00:06:27;100379.75;;;1.09;94.08
57779;BME280;43608;49.486;9.640;2024-01-27T00:06:57;100387.66;;;1.10;94.14
57779;BME280;43608;49.486;9.640;2024-01-27T00:07:28;100379.66;;;1.07;94.24
57779;BME280;43608;49.486;9.640;2024-01-27T00:07:58;100385.78;;;1.08;94.34
57779;BME280;43608;49.486;9.640;2024-01-27T00:08:28;100368.75;;;0.99;93.92
57779;BME280;43608;49.486;9.640;2024-01-27T00:08:59;100384.88;;;1.07;94.44
57779;BME280;43608;49.486;9.640;2024-01-27T00:09:29;100384.88;;;1.07;94.42
57779;BME280;43608;49.486;9.640;2024-01-27T00:10:01;100363.13;;;0.93;94.20
57779;BME280;43608;49.486;9.640;2024-01-27T00:10:32;100395.25;;;1.06;94.20
57779;BME280;43608;49.486;9.640;2024-01-27T00:11:02;100382.19;;;1.06;94.15
57779;BME280;43608;49.486;9.640;2024-01-27T00:11:32;100388.28;;;1.06;94.36
57779;BME280;43608;49.486;9.640;2024-01-27T00:12:03;100382.19;;;1.06;94.18
57779;BME280;43608;49.486;9.640;2024-01-27T00:12:34;100385.59;;;1.05;94.13
57779;BME280;43608;49.486;9.640;2024-01-27T00:13:04;100389.09;;;1.05;94.38
57779;BME280;43608;49.486;9.640;2024-01-27T00:13:34;100387.41;;;1.06;94.56
57779;BME280;43608;49.486;9.640;2024-01-27T00:14:05;100389.09;;;1.05;94.29
57779;BME280;43608;49.486;9.640;2024-01-27T00:14:38;100386.47;;;1.05;94.49
57779;BME280;43608;49.486;9.640;2024-01-27T00:15:08;100384.78;;;1.06;94.53
57779;BME280;43608;49.486;9.640;2024-01-27T00:15:39;100382.97;;;1.05;94.48
57779;BME280;43608;49.486;9.640;2024-01-27T00:16:09;100379.28;;;1.01;94.35
57779;BME280;43608;49.486;9.640;2024-01-27T00:16:40;100364.94;;;0.94;94.44
57779;BME280;43608;49.486;9.640;2024-01-27T00:17:10;100361.16;;;0.89;94.01
57779;BME280;43608;49.486;9.640;2024-01-27T00:17:40;100381.25;;;1.05;94.11
57779;BME280;43608;49.486;9.640;2024-01-27T00:18:11;100392.53;;;1.04;94.01
57779;BME280;43608;49.486;9.640;2024-01-27T00:18:41;100387.31;;;1.04;94.18
57779;BME280;43608;49.486;9.640;2024-01-27T00:19:11;100380.28;;;1.03;94.13
57779;BME280;43608;49.486;9.640;2024-01-27T00:19:42;100354.03;;;0.87;93.99
57779;BME280;43608;49.486;9.640;2024-01-27T00:20:12;100385.28;;;1.00;93.88
57779;BME280;43608;49.486;9.640;2024-01-27T00:20:43;100377.00;;;0.92;94.30
57779;BME280;43608;49.486;9.640;2024-01-27T00:21:13;100367.19;;;0.88;94.27
57779;BME280;43608;49.486;9.640;2024-01-27T00:21:43;100379.59;;;0.92;94.01
57779;BME280;43608;49.486;9.640;2024-01-27T00:22:14;100378.72;;;0.92;94.55
57779;BME280;43608;49.486;9.640;2024-01-27T00:22:44;100391.78;;;0.92;94.07
57779;BME280;43608;49.486;9.640;2024-01-27T00:23:15;100387.34;;;0.91;94.29
57779;BME280;43608;49.486;9.640;2024-01-27T00:23:45;100378.53;;;0.89;94.62
57779;BME280;43608;49.486;9.640;2024-01-27T00:24:15;100385.44;;;0.88;94.57
57779;BME280;43608;49.486;9.640;2024-01-27T00:24:46;100387.97;;;0.87;94.61
57779;BME280;43608;49.486;9.640;2024-01-27T00:25:17;100380.84;;;0.84;94.70
57779;BME280;43608;49.486;9.640;2024-01-27T00:25:47;100388.69;;;0.84;94.63
57779;BME280;43608;49.486;9.640;2024-01-27T00:26:17;100378.88;;;0.80;94.76
57779;BME280;43608;49.486;9.640;2024-01-27T00:26:48;100385.97;;;0.82;94.59
57779;BME280;43608;49.486;9.640;2024-01-27T00:27:18;100380.59;;;0.79;94.65
57779;BME280;43608;49.486;9.640;2024-01-27T00:27:48;100386.59;;;0.78;94.99
57779;BME280;43608;49.486;9.640;2024-01-27T00:28:19;100381.28;;;0.77;94.96
57779;BME280;43608;49.486;9.640;2024-01-27T00:28:49;100386.50;;;0.77;95.03
57779;BME280;43608;49.486;9.640;2024-01-27T00:29:20;100382.09;;;0.76;94.86
57779;BME280;43608;49.486;9.640;2024-01-27T00:29:50;100386.31;;;0.74;95.19
57779;BME280;43608;49.486;9.640;2024-01-27T00:30:21;100387.94;;;0.72;94.73
57779;BME280;43608;49.486;9.640;2024-01-27T00:30:51;100381.72;;;0.70;95.10
57779;BME280;43608;49.486;9.640;2024-01-27T00:31:21;100385.03;;;0.67;95.20
57779;BME280;43608;49.486;9.640;2024-01-27T00:31:52;100384.84;;;0.64;95.28
57779;BME280;43608;49.486;9.640;2024-01-27T00:32:24;100387.34;;;0.62;95.02
57779;BME280;43608;49.486;9.640;2024-01-27T00:32:54;100379.94;;;0.55;95.31
57779;BME280;43608;49.486;9.640;2024-01-27T00:33:25;100379.94;;;0.55;95.55
57779;BME280;43608;49.486;9.640;2024-01-27T00:33:55;100380.47;;;0.49;95.13
57779;BME280;43608;49.486;9.640;2024-01-27T00:34:26;100370.44;;;0.42;95.22
57779;BME280;43608;49.486;9.640;2024-01-27T00:34:57;100378.44;;;0.45;95.55
57779;BME280;43608;49.486;9.640;2024-01-27T00:35:27;100376.53;;;0.43;95.52
57779;BME280;43608;49.486;9.640;2024-01-27T00:35:57;100385.06;;;0.40;95.49
57779;BME280;43608;49.486;9.640;2024-01-27T00:36:28;100384.97;;;0.39;95.68
57779;BME280;43608;49.486;9.640;2024-01-27T00:36:58;100390.00;;;0.36;96.10
57779;BME280;43608;49.486;9.640;2024-01-27T00:37:28;100391.59;;;0.33;96.24
57779;BME280;43608;49.486;9.640;2024-01-27T00:37:59;100369.88;;;0.20;96.12
57779;BME280;43608;49.486;9.640;2024-01-27T00:38:29;100390.41;;;0.28;96.58
57779;BME280;43608;49.486;9.640;2024-01-27T00:39:00;100389.44;;;0.26;96.28
57779;BME280;43608;49.486;9.640;2024-01-27T00:39:31;100385.63;;;0.21;96.83
57779;BME280;43608;49.486;9.640;2024-01-27T00:40:03;100394.44;;;0.23;96.74
57779;BME280;43608;49.486;9.640;2024-01-27T00:40:33;100401.19;;;0.20;96.79
57779;BME280;43608;49.486;9.640;2024-01-27T00:41:04;100399.47;;;0.20;97.02
57779;BME280;43608;49.486;9.640;2024-01-27T00:41:34;100383.00;;;0.08;97.52
57779;BME280;43608;49.486;9.640;2024-01-27T00:42:05;100402.69;;;0.16;96.79
57779;BME280;43608;49.486;9.640;2024-01-27T00:42:35;100405.19;;;0.14;97.27
57779;BME280;43608;49.486;9.640;2024-01-27T00:43:06;100396.03;;;0.08;97.48
57779;BME280;43608;49.486;9.640;2024-01-27T00:43:36;100406.59;;;0.09;97.17
57779;BME280;43608;49.486;9.640;2024-01-27T00:44:07;100396.97;;;0.08;97.15
57779;BME280;43608;49.486;9.640;2024-01-27T00:44:37;100372.09;;;-0.13;97.44
57779;BME280;43608;49.486;9.640;2024-01-27T00:45:08;100378.41;;;-0.10;97.38
57779;BME280;43608;49.486;9.640;2024-01-27T00:45:38;100403.66;;;0.05;97.47
57779;BME280;43608;49.486;9.640;2024-01-27T00:46:09;100400.97;;;0.03;97.54
57779;BME280;43608;49.486;9.640;2024-01-27T00:46:39;100385.34;;;-0.10;97.75
57779;BME280;43608;49.486;9.640;2024-01-27T00:47:09;100406.09;;;0.02;97.98
57779;BME280;43608;49.486;9.640;2024-01-27T00:47:40;100404.28;;;0.01;97.70
57779;BME280;43608;49.486;9.640;2024-01-27T00:48:10;100406.78;;;-0.01;97.84
57779;BME280;43608;49.486;9.640;2024-01-27T00:48:40;100407.59;;;-0.02;97.82
57779;BME280;43608;49.486;9.640;2024-01-27T00:49:11;100406.69;;;-0.03;98.07
57779;BME280;43608;49.486;9.640;2024-01-27T00:49:41;100406.69;;;-0.03;98.43
57779;BME280;43608;49.486;9.640;2024-01-27T00:50:11;100367.88;;;-0.25;98.07
57779;BME280;43608;49.486;9.640;2024-01-27T00:50:42;100406.47;;;-0.06;97.99
57779;BME280;43608;49.486;9.640;2024-01-27T00:51:13;100403.88;;;-0.06;98.04
57779;BME280;43608;49.486;9.640;2024-01-27T00:51:43;100400.28;;;-0.08;98.41
57779;BME280;43608;49.486;9.640;2024-01-27T00:52:14;100401.88;;;-0.10;98.63
57779;BME280;43608;49.486;9.640;2024-01-27T00:52:44;100401.88;;;-0.10;98.34
57779;BME280;43608;49.486;9.640;2024-01-27T00:53:14;100404.38;;;-0.11;98.13
57779;BME280;43608;49.486;9.640;2024-01-27T00:53:45;100406.06;;;-0.12;98.42
57779;BME280;43608;49.486;9.640;2024-01-27T00:54:15;100375.41;;;-0.29;98.49
57779;BME280;43608;49.486;9.640;2024-01-27T00:54:45;100397.97;;;-0.17;98.56
57779;BME280;43608;49.486;9.640;2024-01-27T00:55:16;100403.25;;;-0.15;98.88
57779;BME280;43608;49.486;9.640;2024-01-27T00:55:47;100399.66;;;-0.17;98.48
57779;BME280;43608;49.486;9.640;2024-01-27T00:56:18;100400.25;;;-0.21;98.96
57779;BME280;43608;49.486;9.640;2024-01-27T00:56:48;100409.09;;;-0.19;98.81
57779;BME280;43608;49.486;9.640;2024-01-27T00:57:18;100412.47;;;-0.20;98.76
57779;BME280;43608;49.486;9.640;2024-01-27T00:57:49;100395.34;;;-0.30;98.69
57779;BME280;43608;49.486;9.640;2024-01-27T00:58:19;100405.25;;;-0.24;98.99
57779;BME280;43608;49.486;9.640;2024-01-27T00:58:50;100413.09;;;-0.24;98.92
57779;BME280;43608;49.486;9.640;2024-01-27T00:59:20;100409.56;;;-0.25;98.91
57779;BME280;43608;49.486;9.640;2024-01-27T00:59:51;100416.47;;;-0.25;98.98
57779;BME280;43608;49.486;9.640;2024-01-27T01:00:21;100413.78;;;-0.27;99.32
57779;BME280;43608;49.486;9.640;2024-01-27T01:00:51;100413.69;;;-0.28;99.12
57779;BME280;43608;49.486;9.640;2024-01-27T01:01:22;100405.88;;;-0.28;99.06
57779;BME280;43608;49.486;9.640;2024-01-27T01:01:52;100404.84;;;-0.30;99.24
57779;BME280;43608;49.486;9.640;2024-01-27T01:02:23;100409.16;;;-0.31;99.31
57779;BME280;43608;49.486;9.640;2024-01-27T01:02:53;100397.53;;;-0.36;99.45
57779;BME280;43608;49.486;9.640;2024-01-27T01:03:24;100379.25;;;-0.50;99.32
57779;BME280;43608;49.486;9.640;2024-01-27T01:03:54;100402.75;;;-0.36;99.68
57779;BME280;43608;49.486;9.640;2024-01-27T01:04:24;100406.34;;;-0.34;99.48
57779;BME280;43608;49.486;9.640;2024-01-27T01:04:55;100415.78;;;-0.36;99.29
57779;BME280;43608;49.486;9.640;2024-01-27T01:05:25;100378.03;;;-0.55;99.65
57779;BME280;43608;49.486;9.640;2024-01-27T01:05:56;100411.25;;;-0.39;99.60
57779;BME280;43608;49.486;9.640;2024-01-27T01:06:26;100405.13;;;-0.39;99.59
57779;BME280;43608;49.486;9.640;2024-01-27T01:06:56;100413.78;;;-0.40;99.58
57779;BME280;43608;49.486;9.640;2024-01-27T01:07:27;100411.03;;;-0.42;99.71
57779;BME280;43608;49.486;9.640;2024-01-27T01:07:57;100410.16;;;-0.42;99.92
57779;BME280;43608;49.486;9.640;2024-01-27T01:08:27;100409.13;;;-0.44;99.91
57779;BME280;43608;49.486;9.640;2024-01-27T01:08:58;100413.44;;;-0.45;99.94
57779;BME280;43608;49.486;9.640;2024-01-27T01:09:28;100406.13;;;-0.51;100.00
57779;BME280;43608;49.486;9.640;2024-01-27T01:09:59;100384.78;;;-0.58;100.00
57779;BME280;43608;49.486;9.640;2024-01-27T01:10:29;100406.31;;;-0.47;99.96
57779;BME280;43608;49.486;9.640;2024-01-27T01:11:00;100405.44;;;-0.48;100.00
57779;BME280;43608;49.486;9.640;2024-01-27T01:11:30;100412.22;;;-0.50;100.00
57779;BME280;43608;49.486;9.640;2024-01-27T01:12:00;100412.13;;;-0.52;100.00
57779;BME280;43608;49.486;9.640;2024-01-27T01:12:31;100388.78;;;-0.63;100.00
57779;BME280;43608;49.486;9.640;2024-01-27T01:13:01;100415.53;;;-0.53;100.00
57779;BME280;43608;49.486;9.640;2024-01-27T01:13:32;100415.53;;;-0.53;100.00
57779;BME280;43608;49.486;9.640;2024-01-27T01:14:02;100418.03;;;-0.54;100.00
57779;BME280;43608;49.486;9.640;2024-01-27T01:14:32;100417.13;;;-0.55;100.00
57779;BME280;43608;49.486;9.640;2024-01-27T01:15:03;100362.97;;;-0.86;100.00
57779;BME280;43608;49.486;9.640;2024-01-27T01:15:33;100414.41;;;-0.56;100.00
57779;BME280;43608;49.486;9.640;2024-01-27T01:16:04;100416.13;;;-0.57;100.00
57779;BME280;43608;49.486;9.640;2024-01-27T01:16:35;100420.41;;;-0.57;100.00
57779;BME280;43608;49.486;9.640;2024-01-27T01:17:05;100424.72;;;-0.58;100.00
57779;BME280;43608;49.486;9.640;2024-01-27T01:17:35;100387.03;;;-0.76;100.00
57779;BME280;43608;49.486;9.640;2024-01-27T01:18:06;100420.31;;;-0.59;100.00
57779;BME280;43608;49.486;9.640;2024-01-27T01:18:36;100419.44;;;-0.59;100.00
57779;BME280;43608;49.486;9.640;2024-01-27T01:19:07;100403.78;;;-0.73;100.00
57779;BME280;43608;49.486;9.640;2024-01-27T01:19:37;100414.81;;;-0.63;100.00
57779;BME280;43608;49.486;9.640;2024-01-27T01:20:08;100420.81;;;-0.64;100.00
57779;BME280;43608;49.486;9.640;2024-01-27T01:20:39;100421.69;;;-0.64;100.00
57779;BME280;43608;49.486;9.640;2024-01-27T01:21:09;100423.41;;;-0.64;100.00
57779;BME280;43608;49.486;9.640;2024-01-27T01:21:39;100424.22;;;-0.65;100.00
57779;BME280;43608;49.486;9.640;2024-01-27T01:22:10;100420.72;;;-0.66;100.00
57779;BME280;43608;49.486;9.640;2024-01-27T01:22:41;100425.81;;;-0.68;100.00
57779;BME280;43608;49.486;9.640;2024-01-27T01:23:12;100419.41;;;-0.73;100.00
57779;BME280;43608;49.486;9.640;2024-01-27T01:23:42;100422.19;;;-0.70;100.00
57779;BME280;43608;49.486;9.640;2024-01-27T01:24:13;100422.78;;;-0.74;100.00
57779;BME280;43608;49.486;9.640;2024-01-27T01:24:43;100417.94;;;-0.81;100.00
57779;BME280;43608;49.486;9.640;2024-01-27T01:25:13;100427.06;;;-0.74;100.00
57779;BME280;43608;49.486;9.640;2024-01-27T01:25:44;100428.00;;;-0.74;100.00
57779;BME280;43608;49.486;9.640;2024-01-27T01:26:14;100394.69;;;-0.91;100.00
57779;BME280;43608;49.486;9.640;2024-01-27T01:26:44;100428.59;;;-0.78;100.00
57779;BME280;43608;49.486;9.640;2024-01-27T01:27:15;100427.75;;;-0.77;100.00
57779;BME280;43608;49.486;9.640;2024-01-27T01:27:49;100431.06;;;-0.79;100.00
57779;BME280;43608;49.486;9.640;2024-01-27T01:28:20;100429.16;;;-0.82;100.00
57779;BME280;43608;49.486;9.640;2024-01-27T01:28:50;100442.97;;;-0.83;100.00
57779;BME280;43608;49.486;9.640;2024-01-27T01:29:21;100432.66;;;-0.81;100.00
57779;BME280;43608;49.486;9.640;2024-01-27T01:29:52;100430.06;;;-0.81;100.00
57779;BME280;43608;49.486;9.640;2024-01-27T01:30:22;100434.34;;;-0.82;100.00
57779;BME280;43608;49.486;9.640;2024-01-27T01:30:52;100438.66;;;-0.82;100.00
57779;BME280;43608;49.486;9.640;2024-01-27T01:31:23;100433.47;;;-0.82;100.00
57779;BME280;43608;49.486;9.640;2024-01-27T01:31:53;100429.97;;;-0.83;100.00
57779;BME280;43608;49.486;9.640;2024-01-27T01:32:23;100431.66;;;-0.84;100.00
57779;BME280;43608;49.486;9.640;2024-01-27T01:32:54;100433.38;;;-0.84;100.00
57779;BME280;43608;49.486;9.640;2024-01-27T01:33:24;100432.44;;;-0.85;100.00
57779;BME280;43608;49.486;9.640;2024-01-27T01:33:54;100424.81;;;-0.95;100.00
57779;BME280;43608;49.486;9.640;2024-01-27T01:34:25;100436.75;;;-0.85;100.00
57779;BME280;43608;49.486;9.640;2024-01-27T01:34:55;100424.22;;;-0.91;100.00
57779;BME280;43608;49.486;9.640;2024-01-27T01:35:26;100430.22;;;-0.92;100.00
57779;BME280;43608;49.486;9.640;2024-01-27T01:35:56;100433.13;;;-0.87;100.00
57779;BME280;43608;49.486;9.640;2024-01-27T01:36:27;100438.34;;;-0.87;100.00
57779;BME280;43608;49.486;9.640;2024-01-27T01:36:57;100438.34;;;-0.87;100.00
57779;BME280;43608;49.486;9.640;2024-01-27T01:37:28;100433.13;;;-0.87;100.00
57779;BME280;43608;49.486;9.640;2024-01-27T01:37:58;100441.75;;;-0.88;100.00
57779;BME280;43608;49.486;9.640;2024-01-27T01:38:28;100427.63;;;-0.92;100.00
57779;BME280;43608;49.486;9.640;2024-01-27T01:38:59;100441.66;;;-0.90;100.00
57779;BME280;43608;49.486;9.640;2024-01-27T01:39:29;100434.63;;;-0.91;100.00
57779;BME280;43608;49.486;9.640;2024-01-27T01:40:00;100438.94;;;-0.91;100.00
57779;BME280;43608;49.486;9.640;2024-01-27T01:40:30;100439.63;;;-0.94;100.00
57779;BME280;43608;49.486;9.640;2024-01-27T01:41:01;100443.25;;;-0.92;100.00
57779;BME280;43608;49.486;9.640;2024-01-27T01:41:31;100437.00;;;-0.94;100.00
57779;BME280;43608;49.486;9.640;2024-01-27T01:42:01;100435.09;;;-0.96;100.00
57779;BME280;43608;49.486;9.640;2024-01-27T01:42:32;100442.22;;;-0.94;100.00
57779;BME280;43608;49.486;9.640;2024-01-27T01:43:03;100412.41;;;-1.11;100.00
57779;BME280;43608;49.486;9.640;2024-01-27T01:43:34;100441.22;;;-0.96;100.00
57779;BME280;43608;49.486;9.640;2024-01-27T01:44:06;100437.69;;;-0.96;100.00
57779;BME280;43608;49.486;9.640;2024-01-27T01:44:36;100443.72;;;-0.97;100.00
57779;BME280;43608;49.486;9.640;2024-01-27T01:45:09;100441.91;;;-0.98;100.00
57779;BME280;43608;49.486;9.640;2024-01-27T01:45:42;100442.91;;;-0.96;100.00
57779;BME280;43608;49.486;9.640;2024-01-27T01:46:12;100448.00;;;-0.98;100.00
57779;BME280;43608;49.486;9.640;2024-01-27T01:46:42;100438.53;;;-0.97;100.00
57779;BME280;43608;49.486;9.640;2024-01-27T01:47:13;100447.22;;;-0.97;100.00
57779;BME280;43608;49.486;9.640;2024-01-27T01:47:44;100419.31;;;-1.11;100.00
57779;BME280;43608;49.486;9.640;2024-01-27T01:48:14;100439.22;;;-1.00;100.00
57779;BME280;43608;49.486;9.640;2024-01-27T01:48:45;100441.91;;;-0.98;100.00
57779;BME280;43608;49.486;9.640;2024-01-27T01:49:15;100434.78;;;-1.01;100.00
57779;BME280;43608;49.486;9.640;2024-01-27T01:49:46;100416.38;;;-1.16;100.00
57779;BME280;43608;49.486;9.640;2024-01-27T01:50:17;100447.13;;;-0.98;100.00
57779;BME280;43608;49.486;9.640;2024-01-27T01:50:49;100444.41;;;-1.00;100.00
57779;BME280;43608;49.486;9.640;2024-01-27T01:51:20;100430.97;;;-1.06;100.00
57779;BME280;43608;49.486;9.640;2024-01-27T01:51:50;100449.47;;;-1.02;100.00
57779;BME280;43608;49.486;9.640;2024-01-27T01:52:21;100449.38;;;-1.03;100.00
57779;BME280;43608;49.486;9.640;2024-01-27T01:52:52;100444.19;;;-1.03;100.00
57779;BME280;43608;49.486;9.640;2024-01-27T01:53:23;100443.28;;;-1.04;100.00
57779;BME280;43608;49.486;9.640;2024-01-27T01:53:57;100444.97;;;-1.04;100.00
57779;BME280;43608;49.486;9.640;2024-01-27T01:54:28;100448.38;;;-1.05;100.00
57779;BME280;43608;49.486;9.640;2024-01-27T01:54:59;100442.66;;;-1.13;100.00
57779;BME280;43608;49.486;9.640;2024-01-27T01:55:29;100455.28;;;-1.06;100.00
57779;BME280;43608;49.486;9.640;2024-01-27T01:56:00;100450.84;;;-1.07;100.00
57779;BME280;43608;49.486;9.640;2024-01-27T01:56:31;100455.16;;;-1.07;100.00
57779;BME280;43608;49.486;9.640;2024-01-27T01:57:02;100448.25;;;-1.07;100.00
57779;BME280;43608;49.486;9.640;2024-01-27T01:57:33;100445.25;;;-1.13;100.00
57779;BME280;43608;49.486;9.640;2024-01-27T01:58:04;100452.38;;;-1.10;100.00
57779;BME280;43608;49.486;9.640;2024-01-27T01:58:35;100453.25;;;-1.10;100.00
57779;BME280;43608;49.486;9.640;2024-01-27T01:59:05;100420.94;;;-1.25;100.00
57779;BME280;43608;49.486;9.640;2024-01-27T01:59:36;100452.47;;;-1.09;100.00
57779;BME280;43608;49.486;9.640;2024-01-27T02:00:11;100453.25;;;-1.10;100.00
57779;BME280;43608;49.486;9.640;2024-01-27T02:00:42;100450.56;;;-1.11;100.00
57779;BME280;43608;49.486;9.640;2024-01-27T02:01:12;100453.06;;;-1.13;100.00
57779;BME280;43608;49.486;9.640;2024-01-27T02:01:43;100434.97;;;-1.23;100.00
57779;BME280;43608;49.486;9.640;2024-01-27T02:02:13;100453.84;;;-1.14;100.00
57779;BME280;43608;49.486;9.640;2024-01-27T02:02:44;100461.66;;;-1.14;100.00
57779;BME280;43608;49.486;9.640;2024-01-27T02:03:15;100441.75;;;-1.25;100.00
57779;BME280;43608;49.486;9.640;2024-01-27T02:03:56;100448.09;;;-1.22;100.00
57779;BME280;43608;49.486;9.640;2024-01-27T02:04:27;100462.22;;;-1.18;100.00
57779;BME280;43608;49.486;9.640;2024-01-27T02:04:57;100438.94;;;-1.28;100.00
57779;BME280;43608;49.486;9.640;2024-01-27T02:05:27;100462.81;;;-1.22;100.00
57779;BME280;43608;49.486;9.640;2024-01-27T02:05:58;100460.41;;;-1.19;100.00
57779;BME280;43608;49.486;9.640;2024-01-27T02:06:28;100441.91;;;-1.36;100.00
57779;BME280;43608;49.486;9.640;2024-01-27T02:06:58;100459.38;;;-1.21;100.00
57779;BME280;43608;49.486;9.640;2024-01-27T02:07:29;100468.13;;;-1.21;100.00
57779;BME280;43608;49.486;9.640;2024-01-27T02:07:59;100463.69;;;-1.22;100.00
57779;BME280;43608;49.486;9.640;2024-01-27T02:08:30;100466.31;;;-1.22;100.00
57779;BME280;43608;49.486;9.640;2024-01-27T02:09:01;100467.19;;;-1.21;100.00
57779;BME280;43608;49.486;9.640;2024-01-27T02:09:31;100467.19;;;-1.21;100.00
57779;BME280;43608;49.486;9.640;2024-01-27T02:10:02;100472.41;;;-1.21;100.00
57779;BME280;43608;49.486;9.640;2024-01-27T02:10:32;100473.22;;;-1.22;100.00
57779;BME280;43608;49.486;9.640;2024-01-27T02:11:06;100425.31;;;-1.50;100.00
57779;BME280;43608;49.486;9.640;2024-01-27T02:11:37;100442.47;;;-1.40;100.00
57779;BME280;43608;49.486;9.640;2024-01-27T02:12:07;100476.59;;;-1.23;100.00
57779;BME280;43608;49.486;9.640;2024-01-27T02:12:37;100473.09;;;-1.24;100.00
57779;BME280;43608;49.486;9.640;2024-01-27T02:13:18;100472.19;;;-1.24;100.00
57779;BME280;43608;49.486;9.640;2024-01-27T02:13:49;100479.09;;;-1.25;100.00
57779;BME280;43608;49.486;9.640;2024-01-27T02:14:19;100472.97;;;-1.25;100.00
57779;BME280;43608;49.486;9.640;2024-01-27T02:14:50;100483.38;;;-1.25;100.00
57779;BME280;43608;49.486;9.640;2024-01-27T02:15:20;100475.47;;;-1.27;100.00
57779;BME280;43608;49.486;9.640;2024-01-27T02:15:51;100478.09;;;-1.27;100.00
57779;BME280;43608;49.486;9.640;2024-01-27T02:16:22;100481.56;;;-1.26;100.00
57779;BME280;43608;49.486;9.640;2024-01-27T02:16:53;100476.25;;;-1.28;100.00
57779;BME280;43608;49.486;9.640;2024-01-27T02:17:23;100462.94;;;-1.33;100.00
57779;BME280;43608;49.486;9.640;2024-01-27T02:17:54;100476.25;;;-1.28;100.00
57779;BME280;43608;49.486;9.640;2024-01-27T02:18:24;100479.66;;;-1.29;100.00
57779;BME280;43608;49.486;9.640;2024-01-27T02:18:54;100484.84;;;-1.29;100.00
57779;BME280;43608;49.486;9.640;2024-01-27T02:19:25;100485.69;;;-1.30;100.00
57779;BME280;43608;49.486;9.640;2024-01-27T02:19:55;100484.84;;;-1.29;100.00
57779;BME280;43608;49.486;9.640;2024-01-27T02:20:25;100477.88;;;-1.30;100.00
57779;BME280;43608;49.486;9.640;2024-01-27T02:20:56;100481.38;;;-1.29;100.00
57779;BME280;43608;49.486;9.640;2024-01-27T02:21:26;100411.22;;;-1.65;100.00
57779;BME280;43608;49.486;9.640;2024-01-27T02:21:56;100483.06;;;-1.30;100.00
57779;BME280;43608;49.486;9.640;2024-01-27T02:22:27;100483.97;;;-1.29;100.00
57779;BME280;43608;49.486;9.640;2024-01-27T02:22:57;100480.34;;;-1.31;100.00
57779;BME280;43608;49.486;9.640;2024-01-27T02:23:27;100409.75;;;-1.73;100.00
57779;BME280;43608;49.486;9.640;2024-01-27T02:23:58;100484.75;;;-1.30;100.00
57779;BME280;43608;49.486;9.640;2024-01-27T02:24:28;100486.47;;;-1.31;100.00
57779;BME280;43608;49.486;9.640;2024-01-27T02:24:58;100484.75;;;-1.30;100.00
57779;BME280;43608;49.486;9.640;2024-01-27T02:25:29;100439.56;;;-1.56;100.00
57779;BME280;43608;49.486;9.640;2024-01-27T02:25:59;100489.84;;;-1.32;100.00
57779;BME280;43608;49.486;9.640;2024-01-27T02:26:30;100406.81;;;-1.78;100.00
57779;BME280;43608;49.486;9.640;2024-01-27T02:27:00;100486.13;;;-1.36;100.00
57779;BME280;43608;49.486;9.640;2024-01-27T02:27:30;100468.84;;;-1.47;100.00
57779;BME280;43608;49.486;9.640;2024-01-27T02:28:01;100490.53;;;-1.35;100.00
57779;BME280;43608;49.486;9.640;2024-01-27T02:28:35;100443.41;;;-1.63;100.00
57779;BME280;43608;49.486;9.640;2024-01-27T02:29:05;100483.41;;;-1.37;100.00
57779;BME280;43608;49.486;9.640;2024-01-27T02:29:35;100496.63;;;-1.34;100.00
57779;BME280;43608;49.486;9.640;2024-01-27T02:30:06;100493.13;;;-1.35;100.00
57779;BME280;43608;49.486;9.640;2024-01-27T02:30:37;100501.81;;;-1.34;100.00
57779;BME280;43608;49.486;9.640;2024-01-27T02:31:07;100496.63;;;-1.34;100.00
57779;BME280;43608;49.486;9.640;2024-01-27T02:31:37;100491.00;;;-1.40;100.00
57779;BME280;43608;49.486;9.640;2024-01-27T02:32:08;100498.22;;;-1.36;100.00
57779;BME280;43608;49.486;9.640;2024-01-27T02:32:38;100487.38;;;-1.42;100.00
57779;BME280;43608;49.486;9.640;2024-01-27T02:33:08;100491.09;;;-1.39;100.00
57779;BME280;43608;49.486;9.640;2024-01-27T02:33:39;100499.00;;;-1.37;100.00
57779;BME280;43608;49.486;9.640;2024-01-27T02:34:09;100491.91;;;-1.40;100.00
57779;BME280;43608;49.486;9.640;2024-01-27T02:34:40;100496.31;;;-1.39;100.00
57779;BME280;43608;49.486;9.640;2024-01-27T02:35:10;100500.72;;;-1.38;100.00
57779;BME280;43608;49.486;9.640;2024-01-27T02:35:41;100501.50;;;-1.39;100.00
57779;BME280;43608;49.486;9.640;2024-01-27T02:36:11;100495.38;;;-1.39;100.00
57779;BME280;43608;49.486;9.640;2024-01-27T02:36:41;100498.00;;;-1.39;100.00
57779;BME280;43608;49.486;9.640;2024-01-27T02:37:14;100498.81;;;-1.40;100.00
57779;BME280;43608;49.486;9.640;2024-01-27T02:37:44;100498.81;;;-1.40;100.00
57779;BME280;43608;49.486;9.640;2024-01-27T02:38:14;100500.47;;;-1.41;100.00
57779;BME280;43608;49.486;9.640;2024-01-27T02:38:45;100493.38;;;-1.43;100.00
57779;BME280;43608;49.486;9.640;2024-01-27T02:39:15;100504.78;;;-1.41;100.00
57779;BME280;43608;49.486;9.640;2024-01-27T02:39:46;100503.09;;;-1.41;100.00